createdAt,value
2022-09-03T00:01:14.631Z,25.78
2022-09-03T00:03:47.517Z,25.75
2022-09-03T00:06:17.711Z,25.76
2022-09-03T00:08:50.988Z,25.74
2022-09-03T00:11:25.731Z,25.71
2022-09-03T00:14:03.314Z,25.71
2022-09-03T00:16:41.481Z,25.72
2022-09-03T00:19:08.826Z,25.68
2022-09-03T00:21:44.207Z,25.57
2022-09-03T00:24:15.305Z,25.57
2022-09-03T00:26:47.199Z,25.67
2022-09-03T00:29:20.310Z,25.64
2022-09-03T00:32:02.347Z,25.69
2022-09-03T00:34:39.592Z,25.69
2022-09-03T00:37:08.166Z,25.69
2022-09-03T00:39:41.516Z,25.68
2022-09-03T00:42:14.137Z,25.68
2022-09-03T00:44:55.308Z,25.69
2022-09-03T00:47:43.869Z,25.68
2022-09-03T00:50:19.379Z,25.65
2022-09-03T00:53:15.090Z,25.67
2022-09-03T00:56:21.757Z,25.67
2022-09-03T00:59:18.899Z,25.67
2022-09-03T01:02:00.787Z,25.64
2022-09-03T01:04:33.268Z,25.67
2022-09-03T01:07:34.764Z,25.68
2022-09-03T01:10:30.831Z,25.67
2022-09-03T01:13:17.956Z,25.67
2022-09-03T01:16:03.649Z,25.65
2022-09-03T01:18:53.142Z,25.69
2022-09-03T01:21:48.109Z,25.68
2022-09-03T01:24:22.047Z,25.69
2022-09-03T01:26:57.809Z,25.72
2022-09-03T01:29:44.801Z,25.71
2022-09-03T01:32:23.860Z,25.68
2022-09-03T01:34:56.229Z,25.64
2022-09-03T01:37:44.600Z,25.64
2022-09-03T01:40:16.992Z,25.62
2022-09-03T01:43:06.774Z,25.58
2022-09-03T01:45:51.366Z,25.51
2022-09-03T01:48:32.791Z,25.28
2022-09-03T01:51:18.039Z,25.16
2022-09-03T01:54:10.893Z,25.16
2022-09-03T01:57:12.672Z,25.12
2022-09-03T02:00:04.325Z,25.16
2022-09-03T02:02:32.206Z,25.17
2022-09-03T02:05:02.524Z,25.14
2022-09-03T02:07:34.898Z,25.04
2022-09-03T02:10:04.127Z,25.04
2022-09-03T02:12:35.016Z,25.07
2022-09-03T02:15:04.729Z,25.04
2022-09-03T02:17:33.724Z,25.00
2022-09-03T02:20:06.526Z,24.94
2022-09-03T02:22:34.485Z,24.99
2022-09-03T02:25:01.407Z,24.99
2022-09-03T02:27:28.556Z,24.97
2022-09-03T02:29:55.224Z,24.86
2022-09-03T02:32:21.869Z,24.80
2022-09-03T02:34:48.567Z,24.76
2022-09-03T02:37:17.874Z,24.71
2022-09-03T02:39:45.174Z,24.69
2022-09-03T02:42:13.826Z,24.61
2022-09-03T02:44:46.752Z,24.48
2022-09-03T02:47:15.212Z,24.47
2022-09-03T02:49:42.273Z,24.45
2022-09-03T02:52:12.012Z,24.42
2022-09-03T02:54:40.140Z,24.44
2022-09-03T02:57:09.217Z,24.41
2022-09-03T02:59:36.402Z,24.35
2022-09-03T03:02:03.958Z,24.38
2022-09-03T03:04:32.513Z,24.35
2022-09-03T03:06:59.480Z,24.35
2022-09-03T03:09:26.300Z,24.30
2022-09-03T03:11:55.450Z,24.25
2022-09-03T03:14:22.755Z,24.20
2022-09-03T03:16:50.203Z,24.18
2022-09-03T03:19:17.265Z,24.17
2022-09-03T03:21:44.013Z,24.17
2022-09-03T03:24:10.865Z,24.17
2022-09-03T03:26:37.508Z,24.18
2022-09-03T03:29:07.554Z,24.17
2022-09-03T03:31:34.899Z,24.16
2022-09-03T03:34:03.269Z,24.13
2022-09-03T03:36:33.523Z,24.10
2022-09-03T03:39:01.199Z,24.13
2022-09-03T03:41:33.228Z,24.09
2022-09-03T03:44:02.691Z,24.11
2022-09-03T03:46:32.311Z,24.11
2022-09-03T03:48:59.916Z,24.11
2022-09-03T03:51:27.021Z,24.11
2022-09-03T03:53:56.019Z,24.07
2022-09-03T03:56:23.226Z,24.10
2022-09-03T03:58:49.931Z,24.07
2022-09-03T04:01:19.287Z,24.07
2022-09-03T04:03:46.267Z,24.13
2022-09-03T04:06:15.023Z,24.13
2022-09-03T04:08:43.081Z,24.13
2022-09-03T04:11:13.509Z,24.16
2022-09-03T04:13:42.173Z,24.11
2022-09-03T04:16:10.262Z,24.06
2022-09-03T04:18:38.360Z,24.03
2022-09-03T04:21:08.668Z,24.04
2022-09-03T04:23:37.071Z,24.06
2022-09-03T04:26:04.447Z,24.06
2022-09-03T04:28:32.259Z,24.03
2022-09-03T04:31:07.177Z,24.01
2022-09-03T04:33:35.848Z,23.99
2022-09-03T04:36:12.276Z,23.96
2022-09-03T04:38:41.656Z,23.94
2022-09-03T04:41:11.394Z,23.93
2022-09-03T04:43:39.560Z,23.92
2022-09-03T04:46:12.944Z,23.93
2022-09-03T04:48:44.724Z,23.90
2022-09-03T04:51:13.882Z,23.89
2022-09-03T04:53:46.019Z,23.84
2022-09-03T04:56:18.589Z,23.80
2022-09-03T04:58:46.237Z,23.82
2022-09-03T05:01:19.790Z,23.77
2022-09-03T05:03:47.087Z,23.77
2022-09-03T05:06:17.149Z,23.77
2022-09-03T05:08:48.321Z,23.76
2022-09-03T05:11:16.055Z,23.74
2022-09-03T05:13:43.417Z,23.73
2022-09-03T05:16:11.750Z,23.73
2022-09-03T05:18:38.614Z,23.72
2022-09-03T05:21:14.333Z,23.72
2022-09-03T05:23:43.595Z,23.76
2022-09-03T05:26:13.397Z,23.76
2022-09-03T05:28:41.874Z,23.77
2022-09-03T05:31:20.051Z,23.82
2022-09-03T05:33:52.789Z,23.82
2022-09-03T05:36:24.425Z,23.80
2022-09-03T05:38:54.216Z,23.80
2022-09-03T05:41:22.135Z,23.82
2022-09-03T05:43:56.241Z,23.80
2022-09-03T05:46:31.906Z,23.83
2022-09-03T05:49:03.599Z,23.89
2022-09-03T05:51:31.497Z,23.90
2022-09-03T05:53:59.112Z,23.90
2022-09-03T05:56:27.924Z,23.87
2022-09-03T05:58:57.589Z,23.86
2022-09-03T06:01:26.814Z,23.87
2022-09-03T06:03:56.188Z,23.87
2022-09-03T06:06:26.155Z,23.86
2022-09-03T06:08:58.360Z,23.87
2022-09-03T06:11:28.206Z,23.90
2022-09-03T06:14:01.492Z,23.92
2022-09-03T06:16:31.571Z,23.96
2022-09-03T06:19:02.271Z,24.00
2022-09-03T06:21:29.271Z,24.04
2022-09-03T06:23:59.526Z,24.09
2022-09-03T06:26:29.261Z,24.09
2022-09-03T06:28:57.049Z,24.01
2022-09-03T06:31:24.623Z,24.01
2022-09-03T06:33:51.992Z,24.06
2022-09-03T06:36:20.271Z,24.10
2022-09-03T06:38:47.875Z,24.13
2022-09-03T06:41:26.603Z,24.17
2022-09-03T06:43:59.134Z,24.22
2022-09-03T06:46:25.774Z,24.24
2022-09-03T06:48:53.446Z,24.21
2022-09-03T06:51:22.865Z,24.27
2022-09-03T06:53:51.918Z,24.32
2022-09-03T06:56:26.506Z,24.35
2022-09-03T06:58:57.268Z,24.35
2022-09-03T07:01:31.317Z,24.44
2022-09-03T07:04:03.721Z,24.42
2022-09-03T07:06:38.837Z,24.45
2022-09-03T07:09:07.025Z,24.47
2022-09-03T07:11:35.959Z,24.47
2022-09-03T07:14:04.608Z,24.42
2022-09-03T07:16:37.748Z,24.41
2022-09-03T07:19:06.981Z,24.41
2022-09-03T07:21:36.902Z,24.37
2022-09-03T07:24:05.722Z,24.37
2022-09-03T07:26:43.998Z,24.32
2022-09-03T07:29:11.698Z,24.31
2022-09-03T07:31:40.836Z,24.35
2022-09-03T07:34:10.562Z,24.44
2022-09-03T07:36:48.972Z,24.56
2022-09-03T07:39:17.943Z,24.61
2022-09-03T07:41:48.878Z,24.64
2022-09-03T07:44:19.893Z,24.69
2022-09-03T07:46:48.175Z,24.72
2022-09-03T07:49:15.256Z,24.77
2022-09-03T07:51:41.930Z,24.80
2022-09-03T07:54:11.357Z,24.87
2022-09-03T07:56:40.207Z,25.06
2022-09-03T07:59:07.869Z,25.20
2022-09-03T08:01:36.398Z,25.35
2022-09-03T08:04:04.412Z,25.52
2022-09-03T08:06:32.794Z,25.71
2022-09-03T08:09:05.000Z,25.82
2022-09-03T08:11:35.295Z,25.92
2022-09-03T08:14:06.519Z,26.00
2022-09-03T08:16:39.693Z,25.99
2022-09-03T08:19:07.662Z,25.99
2022-09-03T08:21:34.750Z,26.02
2022-09-03T08:24:05.106Z,26.09
2022-09-03T08:26:37.369Z,26.22
2022-09-03T08:29:05.123Z,26.24
2022-09-03T08:31:32.972Z,26.24
2022-09-03T08:34:07.051Z,26.23
2022-09-03T08:36:38.905Z,26.17
2022-09-03T08:39:10.881Z,26.16
2022-09-03T08:41:56.304Z,26.17
2022-09-03T08:44:25.678Z,26.20
2022-09-03T08:47:21.188Z,26.16
2022-09-03T08:49:50.563Z,26.19
2022-09-03T08:52:24.036Z,26.27
2022-09-03T08:54:54.720Z,26.33
2022-09-03T08:57:22.064Z,26.39
2022-09-03T08:59:56.222Z,26.47
2022-09-03T09:02:34.121Z,26.58
2022-09-03T09:05:14.112Z,26.69
2022-09-03T09:07:56.762Z,26.67
2022-09-03T09:10:52.682Z,26.75
2022-09-03T09:13:25.329Z,26.82
2022-09-03T09:16:06.446Z,26.94
2022-09-03T09:19:11.925Z,27.00
2022-09-03T09:22:02.810Z,27.03
2022-09-03T09:24:40.305Z,27.10
2022-09-03T09:27:07.385Z,27.19
2022-09-03T09:29:39.112Z,27.12
2022-09-03T09:32:10.509Z,27.17
2022-09-03T09:34:38.985Z,27.20
2022-09-03T09:37:11.692Z,27.16
2022-09-03T09:39:38.437Z,27.10
2022-09-03T09:42:12.332Z,26.98
2022-09-03T09:44:41.407Z,26.88
2022-09-03T09:47:31.698Z,26.89
2022-09-03T09:50:00.848Z,26.96
2022-09-03T09:52:31.671Z,27.02
2022-09-03T09:55:17.666Z,27.09
2022-09-03T09:57:44.358Z,27.09
2022-09-03T10:00:14.639Z,27.10
2022-09-03T10:02:48.747Z,27.13
2022-09-03T10:05:31.505Z,27.17
2022-09-03T10:08:06.700Z,27.16
2022-09-03T10:10:51.961Z,27.12
2022-09-03T10:13:19.971Z,27.20
2022-09-03T10:15:59.779Z,27.29
2022-09-03T10:19:06.158Z,27.34
2022-09-03T10:21:50.877Z,27.46
2022-09-03T10:24:41.614Z,27.44
2022-09-03T10:27:12.293Z,27.36
2022-09-03T10:29:40.870Z,27.17
2022-09-03T10:32:38.894Z,27.06
2022-09-03T10:35:12.699Z,27.00
2022-09-03T10:37:52.001Z,27.03
2022-09-03T10:40:40.483Z,27.00
2022-09-03T10:43:41.806Z,26.92
2022-09-03T10:46:24.323Z,26.89
2022-09-03T10:49:31.383Z,27.00
2022-09-03T10:52:12.338Z,27.06
2022-09-03T10:54:44.876Z,27.15
2022-09-03T10:57:27.115Z,27.22
2022-09-03T11:00:04.852Z,27.30
2022-09-03T11:03:05.520Z,27.40
2022-09-03T11:06:10.063Z,27.51
2022-09-03T11:08:47.269Z,27.58
2022-09-03T11:11:21.833Z,27.51
2022-09-03T11:14:09.022Z,27.51
2022-09-03T11:16:45.392Z,27.57
2022-09-03T11:19:17.783Z,27.67
2022-09-03T11:21:47.645Z,27.77
2022-09-03T11:24:19.426Z,27.81
2022-09-03T11:27:07.869Z,27.80
2022-09-03T11:29:38.170Z,27.72
2022-09-03T11:32:11.907Z,27.60
2022-09-03T11:34:54.659Z,27.64
2022-09-03T11:37:23.167Z,27.71
2022-09-03T11:40:04.795Z,27.74
2022-09-03T11:42:38.178Z,27.71
2022-09-03T11:45:27.662Z,27.81
2022-09-03T11:47:54.759Z,27.82
2022-09-03T11:50:24.758Z,27.71
2022-09-03T11:52:54.361Z,27.68
2022-09-03T11:55:43.341Z,27.62
2022-09-03T11:58:29.399Z,27.58
2022-09-03T12:00:58.511Z,27.54
2022-09-03T12:03:29.169Z,27.53
2022-09-03T12:06:22.224Z,27.58
2022-09-03T12:08:56.456Z,27.62
2022-09-03T12:11:46.867Z,27.71
2022-09-03T12:14:29.926Z,27.71
2022-09-03T12:17:18.559Z,27.62
2022-09-03T12:19:50.729Z,27.60
2022-09-03T12:22:19.298Z,27.53
2022-09-03T12:24:46.377Z,27.50
2022-09-03T12:27:25.026Z,27.57
2022-09-03T12:30:04.221Z,27.71
2022-09-03T12:32:39.515Z,27.76
2022-09-03T12:38:08.446Z,27.74
2022-09-03T12:40:35.937Z,27.74
2022-09-03T12:43:49.069Z,27.76
2022-09-03T12:46:16.284Z,27.82
2022-09-03T12:51:57.546Z,27.81
2022-09-03T12:54:25.832Z,27.85
2022-09-03T12:56:59.817Z,27.88
2022-09-03T12:59:36.019Z,27.92
2022-09-03T13:02:18.303Z,27.97
2022-09-03T13:04:46.401Z,27.97
2022-09-03T13:07:29.852Z,27.97
2022-09-03T13:10:04.343Z,27.99
2022-09-03T13:12:43.266Z,28.04
2022-09-03T13:15:19.827Z,28.05
2022-09-03T13:18:31.347Z,27.99
2022-09-03T13:21:41.893Z,28.05
2022-09-03T13:24:44.144Z,28.01
2022-09-03T13:27:34.414Z,28.04
2022-09-03T13:30:17.161Z,28.05
2022-09-03T13:33:11.739Z,28.01
2022-09-03T13:36:02.341Z,28.04
2022-09-03T13:38:39.398Z,28.09
2022-09-03T13:41:24.604Z,28.13
2022-09-03T13:44:08.595Z,28.15
2022-09-03T13:46:45.311Z,28.15
2022-09-03T13:49:55.494Z,28.12
2022-09-03T13:52:53.410Z,28.12
2022-09-03T13:55:37.947Z,28.16
2022-09-03T13:58:19.886Z,28.13
2022-09-03T14:00:52.447Z,28.15
2022-09-03T14:03:37.312Z,28.16
2022-09-03T14:06:36.149Z,28.13
2022-09-03T14:09:09.357Z,28.13
2022-09-03T14:11:51.263Z,28.16
2022-09-03T14:14:37.250Z,28.13
2022-09-03T14:17:41.786Z,28.10
2022-09-03T14:20:22.417Z,28.12
2022-09-03T14:22:55.989Z,28.18
2022-09-03T14:25:25.181Z,28.19
2022-09-03T14:27:55.106Z,28.22
2022-09-03T14:30:55.808Z,28.20
2022-09-03T14:33:58.132Z,28.15
2022-09-03T14:36:33.575Z,28.13
2022-09-03T14:39:00.241Z,28.16
2022-09-03T14:41:41.986Z,28.20
2022-09-03T14:44:14.509Z,28.19
2022-09-03T14:47:02.581Z,28.23
2022-09-03T14:49:54.010Z,28.26
2022-09-03T14:52:35.785Z,28.31
2022-09-03T14:55:20.030Z,28.26
2022-09-03T14:58:24.199Z,28.25
2022-09-03T15:01:02.510Z,28.23
2022-09-03T15:03:47.139Z,28.26
2022-09-03T15:06:50.865Z,28.35
2022-09-03T15:09:37.281Z,28.32
2022-09-03T15:12:18.935Z,28.33
2022-09-03T15:14:59.064Z,28.33
2022-09-03T15:17:46.414Z,28.32
2022-09-03T15:20:41.643Z,28.36
2022-09-03T15:23:21.275Z,28.40
2022-09-03T15:26:10.175Z,28.44
2022-09-03T15:29:15.877Z,28.46
2022-09-03T15:31:45.326Z,28.46
2022-09-03T15:34:30.339Z,28.44
2022-09-03T15:37:03.888Z,28.44
2022-09-03T15:39:36.661Z,28.47
2022-09-03T15:42:26.658Z,28.44
2022-09-03T15:44:57.105Z,28.44
2022-09-03T15:47:51.419Z,28.44
2022-09-03T15:50:27.042Z,28.47
2022-09-03T15:53:05.061Z,28.47
2022-09-03T15:55:33.980Z,28.54
2022-09-03T15:58:28.968Z,28.60
2022-09-03T16:01:00.248Z,28.61
2022-09-03T16:03:45.728Z,28.65
2022-09-03T16:06:54.666Z,28.68
2022-09-03T16:09:35.654Z,28.71
2022-09-03T16:12:14.715Z,28.70
2022-09-03T16:14:56.040Z,28.70
2022-09-03T16:17:44.741Z,28.70
2022-09-03T16:20:32.345Z,28.71
2022-09-03T16:23:28.886Z,28.68
2022-09-03T16:26:07.755Z,28.63
2022-09-03T16:28:42.691Z,28.54
2022-09-03T16:31:49.609Z,28.46
2022-09-03T16:34:36.887Z,28.36
2022-09-03T16:37:31.275Z,28.37
2022-09-03T16:40:26.913Z,28.29
2022-09-03T16:43:41.618Z,28.25
2022-09-03T16:46:35.707Z,28.26
2022-09-03T16:49:39.465Z,28.23
2022-09-03T16:52:37.915Z,28.26
2022-09-03T16:55:24.794Z,28.23
2022-09-03T16:57:59.837Z,28.25
2022-09-03T17:01:03.317Z,28.26
2022-09-03T17:03:53.521Z,28.25
2022-09-03T17:06:42.236Z,28.29
2022-09-03T17:09:47.284Z,28.29
2022-09-03T17:12:26.275Z,28.31
2022-09-03T17:15:00.738Z,28.29
2022-09-03T17:17:46.517Z,28.32
2022-09-03T17:20:16.094Z,28.31
2022-09-03T17:23:07.071Z,28.27
2022-09-03T17:25:37.791Z,28.25
2022-09-03T17:28:33.598Z,28.22
2022-09-03T17:31:06.275Z,28.15
2022-09-03T17:33:54.190Z,28.15
2022-09-03T17:36:27.487Z,28.13
2022-09-03T17:39:12.387Z,28.18
2022-09-03T17:41:44.986Z,28.19
2022-09-03T17:44:23.970Z,28.23
2022-09-03T17:47:12.783Z,28.19
2022-09-03T17:49:58.432Z,28.19
2022-09-03T17:52:36.161Z,28.20
2022-09-03T17:55:22.021Z,28.19
2022-09-03T17:58:04.966Z,28.25
2022-09-03T18:00:40.434Z,28.22
2022-09-03T18:03:22.074Z,28.19
2022-09-03T18:06:06.333Z,28.19
2022-09-03T18:09:10.058Z,28.19
2022-09-03T18:11:39.415Z,28.16
2022-09-03T18:14:28.775Z,28.13
2022-09-03T18:17:09.302Z,28.12
2022-09-03T18:20:24.367Z,28.10
2022-09-03T18:23:21.361Z,28.09
2022-09-03T18:26:12.633Z,28.06
2022-09-03T18:29:06.614Z,28.04
2022-09-03T18:31:51.629Z,27.99
2022-09-03T18:34:48.636Z,27.95
2022-09-03T18:37:39.057Z,27.95
2022-09-03T18:40:26.441Z,27.92
2022-09-03T18:43:24.024Z,27.89
2022-09-03T18:48:00.940Z,27.84
2022-09-03T18:50:25.635Z,27.80
2022-09-03T18:53:36.544Z,27.78
2022-09-03T18:56:58.918Z,27.76
2022-09-03T18:59:46.687Z,27.71
2022-09-03T19:02:59.812Z,27.67
2022-09-03T19:05:57.689Z,27.65
2022-09-03T19:08:49.260Z,27.62
2022-09-03T19:11:53.607Z,27.62
2022-09-03T19:15:11.927Z,27.57
2022-09-03T19:18:27.473Z,27.57
2022-09-03T19:21:21.513Z,27.51
2022-09-03T19:24:07.665Z,27.51
2022-09-03T19:27:31.215Z,27.50
2022-09-03T19:30:30.370Z,27.47
2022-09-03T19:33:18.411Z,27.47
2022-09-03T19:36:23.624Z,27.42
2022-09-03T19:39:16.761Z,27.44
2022-09-03T19:42:15.343Z,27.39
2022-09-03T19:45:18.704Z,27.37
2022-09-03T19:48:19.957Z,27.34
2022-09-03T19:51:19.088Z,27.36
2022-09-03T19:54:06.521Z,27.34
2022-09-03T19:56:54.183Z,27.32
2022-09-03T19:59:44.239Z,27.33
2022-09-03T20:02:29.790Z,27.30
2022-09-03T20:05:19.828Z,27.32
2022-09-03T20:08:11.261Z,27.29
2022-09-03T20:10:38.269Z,27.27
2022-09-03T20:13:17.309Z,27.25
2022-09-03T20:15:49.690Z,27.19
2022-09-03T20:18:41.494Z,27.20
2022-09-03T20:21:17.065Z,27.19
2022-09-03T20:24:21.602Z,27.17
2022-09-03T20:27:23.324Z,27.15
2022-09-03T20:30:04.435Z,27.13
2022-09-03T20:32:53.237Z,27.07
2022-09-03T20:35:44.270Z,27.09
2022-09-03T20:38:16.661Z,27.05
2022-09-03T20:40:50.999Z,27.00
2022-09-03T20:43:44.249Z,27.00
2022-09-03T20:46:46.346Z,26.99
2022-09-03T20:49:33.144Z,26.99
2022-09-03T20:52:06.555Z,26.98
2022-09-03T20:54:47.340Z,26.95
2022-09-03T20:57:32.585Z,26.94
2022-09-03T21:00:12.664Z,26.91
2022-09-03T21:02:58.775Z,26.89
2022-09-03T21:05:47.300Z,26.85
2022-09-03T21:08:45.816Z,26.84
2022-09-03T21:11:21.143Z,26.81
2022-09-03T21:14:26.627Z,26.81
2022-09-03T21:17:30.291Z,26.78
2022-09-03T21:20:22.087Z,26.74
2022-09-03T21:23:09.680Z,26.72
2022-09-03T21:26:16.299Z,26.68
2022-09-03T21:28:52.723Z,26.65
2022-09-03T21:31:23.998Z,26.62
2022-09-03T21:33:58.564Z,26.62
2022-09-03T21:36:33.964Z,26.57
2022-09-03T21:39:10.310Z,26.57
2022-09-03T21:41:47.677Z,26.55
2022-09-03T21:44:58.738Z,26.48
2022-09-03T21:47:27.864Z,26.48
2022-09-03T21:50:16.968Z,26.45
2022-09-03T21:52:59.244Z,26.45
2022-09-03T21:55:25.845Z,26.43
2022-09-03T21:58:19.970Z,26.44
2022-09-03T22:00:48.187Z,26.40
2022-09-03T22:03:14.833Z,26.37
2022-09-03T22:05:57.324Z,26.31
2022-09-03T22:08:31.809Z,26.29
2022-09-03T22:11:03.359Z,26.27
2022-09-03T22:14:01.330Z,26.24
2022-09-03T22:16:37.649Z,26.23
2022-09-03T22:19:07.861Z,26.20
2022-09-03T22:21:44.501Z,26.20
2022-09-03T22:24:43.555Z,26.16
2022-09-03T22:27:43.717Z,26.17
2022-09-03T22:30:14.766Z,26.14
2022-09-03T22:33:15.067Z,26.14
2022-09-03T22:36:02.775Z,26.12
2022-09-03T22:39:00.106Z,26.12
2022-09-03T22:41:48.569Z,26.06
2022-09-03T22:44:34.059Z,26.05
2022-09-03T22:47:14.574Z,26.03
2022-09-03T22:49:41.372Z,26.00
2022-09-03T22:52:32.476Z,26.00
2022-09-03T22:55:12.485Z,25.96
2022-09-03T22:57:51.239Z,25.95
2022-09-03T23:00:18.464Z,25.93
2022-09-03T23:02:51.320Z,25.92
2022-09-03T23:05:36.395Z,25.90
2022-09-03T23:08:14.710Z,25.89
2022-09-03T23:11:08.713Z,25.85
2022-09-03T23:13:43.281Z,25.82
2022-09-03T23:16:20.949Z,25.81
2022-09-03T23:18:49.392Z,25.78
2022-09-03T23:21:24.612Z,25.71
2022-09-03T23:23:59.887Z,25.71
2022-09-03T23:26:40.409Z,25.69
2022-09-03T23:29:27.340Z,25.68
2022-09-03T23:31:57.410Z,25.65
2022-09-03T23:34:24.854Z,25.64
2022-09-03T23:37:39.220Z,25.64
2022-09-03T23:40:31.950Z,25.64
2022-09-03T23:43:16.759Z,25.65
2022-09-03T23:46:11.144Z,25.62
2022-09-03T23:48:59.352Z,25.62
2022-09-03T23:52:10.871Z,25.57
2022-09-03T23:54:40.390Z,25.58
2022-09-03T23:57:34.032Z,25.50
